Time;durP1;ratioP1;P1;durP2;ratioP2;P2;SDS_P1;SDS_P2;PMS_P1;PMS_P2;Temp;Humidity;BMP_temperature;BMP_pressure;BME280_temperature;BME280_humidity;BME280_pressure;Samples;Min_cycle;Max_cycle;Signal;HPM_P1;HPM_P2
2021/07/24 00:00:16;;;;;;;6.90;5.23;;;21.50;99.90;;;;;;5051380;28;20568;-82
2021/07/24 00:02:44;;;;;;;4.60;4.20;;;21.50;99.90;;;;;;5048586;28;20452;-83
2021/07/24 00:05:11;;;;;;;7.47;5.80;;;21.50;99.90;;;;;;5053014;28;20460;-84
2021/07/24 00:07:38;;;;;;;6.57;5.87;;;21.40;99.90;;;;;;5056004;28;20543;-82
2021/07/24 00:10:07;;;;;;;5.63;5.10;;;21.40;99.90;;;;;;5052578;28;20827;-85
2021/07/24 00:12:34;;;;;;;6.23;5.20;;;21.40;99.90;;;;;;5051642;28;20455;-85
2021/07/24 00:15:01;;;;;;;8.73;5.60;;;21.30;99.90;;;;;;5055715;28;20501;-84
2021/07/24 00:17:28;;;;;;;5.60;4.90;;;21.30;99.90;;;;;;5055405;28;20456;-83
2021/07/24 00:19:56;;;;;;;5.67;5.17;;;21.30;99.90;;;;;;5051884;28;20459;-84
2021/07/24 00:22:23;;;;;;;6.80;5.33;;;21.30;99.90;;;;;;5056104;28;20462;-83
2021/07/24 00:24:50;;;;;;;5.57;4.90;;;21.20;99.90;;;;;;5050059;28;20450;-83
2021/07/24 00:27:17;;;;;;;6.20;5.57;;;21.20;99.90;;;;;;5052999;28;20542;-85
2021/07/24 00:29:44;;;;;;;8.63;5.10;;;21.20;99.90;;;;;;5059889;28;20448;-83
2021/07/24 00:32:11;;;;;;;7.47;5.70;;;21.20;99.90;;;;;;5050714;28;20526;-83
2021/07/24 00:34:38;;;;;;;5.70;5.13;;;21.10;99.90;;;;;;5054365;28;20478;-83
2021/07/24 00:37:07;;;;;;;6.57;5.40;;;21.10;99.90;;;;;;5054901;28;20459;-83
2021/07/24 00:39:34;;;;;;;8.20;5.40;;;21.10;99.90;;;;;;5052297;28;20489;-83
2021/07/24 00:42:12;;;;;;;7.77;5.60;;;21.00;99.90;;;;;;5055531;28;20524;-83
2021/07/24 00:44:44;;;;;;;6.47;5.87;;;21.00;99.90;;;;;;5055444;28;20455;-83
2021/07/24 00:47:15;;;;;;;6.47;5.37;;;21.00;99.90;;;;;;5050704;28;20451;-82
2021/07/24 00:49:43;;;;;;;5.90;5.40;;;21.00;99.90;;;;;;5049497;28;20461;-83
2021/07/24 00:52:12;;;;;;;6.33;5.73;;;21.00;99.90;;;;;;5054662;28;20957;-84
2021/07/24 00:54:39;;;;;;;6.40;5.80;;;21.00;99.90;;;;;;5051485;28;20665;-83
2021/07/24 00:57:07;;;;;;;6.50;5.90;;;20.90;99.90;;;;;;5048063;28;20447;-83
2021/07/24 00:59:35;;;;;;;5.57;5.07;;;20.90;99.90;;;;;;5051665;28;20857;-84
2021/07/24 01:02:02;;;;;;;7.23;5.70;;;20.90;99.90;;;;;;5049539;28;20468;-83
2021/07/24 01:04:29;;;;;;;9.93;5.17;;;20.80;99.90;;;;;;5050720;28;20452;-86
2021/07/24 01:06:57;;;;;;;7.13;5.33;;;20.80;99.90;;;;;;5049543;28;20463;-84
2021/07/24 01:09:27;;;;;;;8.80;7.00;;;20.70;99.90;;;;;;5050234;28;21304;-83
2021/07/24 01:11:54;;;;;;;6.03;5.43;;;20.60;99.90;;;;;;5053186;28;20478;-84
2021/07/24 01:14:21;;;;;;;6.47;5.87;;;20.60;99.90;;;;;;5051200;28;20486;-84
2021/07/24 01:16:48;;;;;;;6.53;5.67;;;20.60;99.90;;;;;;5050475;28;20463;-82
2021/07/24 01:19:15;;;;;;;6.83;5.83;;;20.50;99.90;;;;;;5050496;28;20552;-84
2021/07/24 01:21:45;;;;;;;6.00;5.40;;;20.50;99.90;;;;;;5053478;28;21084;-83
2021/07/24 01:24:12;;;;;;;5.83;5.30;;;20.50;99.90;;;;;;5060193;28;20463;-85
2021/07/24 01:26:43;;;;;;;6.53;5.83;;;20.50;99.90;;;;;;5053234;28;20950;-84
2021/07/24 01:29:14;;;;;;;6.10;5.60;;;20.50;99.90;;;;;;5056893;28;20943;-83
2021/07/24 01:31:41;;;;;;;8.67;6.20;;;20.40;99.90;;;;;;5059901;28;20466;-86
2021/07/24 01:34:08;;;;;;;11.37;6.40;;;20.50;99.90;;;;;;5055701;28;20537;-84
2021/07/24 01:36:35;;;;;;;5.90;5.27;;;20.50;99.90;;;;;;5055028;28;20485;-84
2021/07/24 01:39:03;;;;;;;6.33;5.70;;;20.40;99.90;;;;;;5057135;28;21009;-85
2021/07/24 01:41:30;;;;;;;8.00;6.67;;;20.40;99.90;;;;;;5056793;28;20464;-83
2021/07/24 01:43:57;;;;;;;6.40;5.80;;;20.40;99.90;;;;;;5056513;28;20492;-84
2021/07/24 01:46:24;;;;;;;6.20;5.50;;;20.30;99.90;;;;;;5054867;28;20468;-84
2021/07/24 01:49:04;;;;;;;5.87;5.30;;;20.30;99.90;;;;;;5057137;28;20868;-86
2021/07/24 01:54:31;;;;;;;5.40;4.93;;;20.20;99.90;;;;;;5056180;28;20538;-83
2021/07/24 01:57:00;;;;;;;6.67;5.40;;;20.10;99.90;;;;;;5055317;28;20462;-83
2021/07/24 01:59:32;;;;;;;7.10;6.10;;;20.00;99.90;;;;;;5057337;28;20462;-83
2021/07/24 02:02:00;;;;;;;5.90;5.20;;;19.90;99.90;;;;;;5054240;28;20459;-82
2021/07/24 02:04:30;;;;;;;6.50;5.70;;;19.90;99.90;;;;;;5056598;28;20487;-82
2021/07/24 02:06:57;;;;;;;5.90;5.40;;;19.80;99.90;;;;;;5055647;28;20886;-84
2021/07/24 02:09:24;;;;;;;9.40;5.50;;;19.80;99.90;;;;;;5057366;28;20462;-85
2021/07/24 02:11:52;;;;;;;6.50;5.90;;;19.80;99.90;;;;;;5054535;28;20507;-83
2021/07/24 02:14:20;;;;;;;7.23;6.47;;;19.80;99.90;;;;;;5054575;28;20848;-82
2021/07/24 02:16:47;;;;;;;6.93;6.23;;;19.80;99.90;;;;;;5053319;28;20971;-82
2021/07/24 02:19:14;;;;;;;9.27;6.97;;;19.90;99.90;;;;;;5052933;28;20485;-82
2021/07/24 02:21:41;;;;;;;9.07;7.50;;;19.90;99.90;;;;;;5059932;28;20470;-84
2021/07/24 02:24:09;;;;;;;9.30;6.40;;;19.90;99.90;;;;;;5055917;28;20454;-82
2021/07/24 02:26:41;;;;;;;6.23;5.73;;;19.90;99.90;;;;;;5057367;28;20467;-83
2021/07/24 02:29:09;;;;;;;9.20;7.27;;;19.90;99.90;;;;;;5055208;28;20466;-83
2021/07/24 02:31:36;;;;;;;9.93;6.90;;;19.90;99.90;;;;;;5051040;28;20679;-82
2021/07/24 02:34:03;;;;;;;6.67;6.07;;;19.90;99.90;;;;;;5055202;28;20462;-82
2021/07/24 02:36:30;;;;;;;7.43;6.70;;;19.90;99.90;;;;;;5051569;28;20510;-82
2021/07/24 02:38:57;;;;;;;7.97;6.40;;;19.90;99.90;;;;;;5050262;28;20486;-84
2021/07/24 02:41:24;;;;;;;7.00;6.30;;;19.90;99.90;;;;;;5055308;28;20538;-83
2021/07/24 02:43:51;;;;;;;8.47;6.63;;;19.90;99.90;;;;;;5049318;28;20465;-84
2021/07/24 02:46:20;;;;;;;9.67;6.97;;;19.90;99.90;;;;;;5059208;28;20536;-83
2021/07/24 02:48:48;;;;;;;11.43;6.80;;;19.90;99.90;;;;;;5056505;28;20467;-83
2021/07/24 02:51:15;;;;;;;8.00;7.20;;;19.90;99.90;;;;;;5056255;28;20462;-84
2021/07/24 02:53:43;;;;;;;8.50;7.40;;;19.90;99.90;;;;;;5050817;28;20467;-82
2021/07/24 02:56:10;;;;;;;7.93;7.17;;;19.90;99.90;;;;;;5049400;28;20723;-83
2021/07/24 02:58:37;;;;;;;9.63;6.90;;;19.90;99.90;;;;;;5055832;28;20486;-83
2021/07/24 03:01:07;;;;;;;7.60;6.90;;;19.90;99.90;;;;;;5054989;28;20459;-84
2021/07/24 03:03:36;;;;;;;11.77;7.27;;;19.90;99.90;;;;;;5050538;28;20546;-82
2021/07/24 03:06:04;;;;;;;7.87;6.83;;;19.90;99.90;;;;;;5054326;28;20884;-84
2021/07/24 03:08:31;;;;;;;8.30;7.30;;;20.00;99.90;;;;;;5055019;28;20491;-82
2021/07/24 03:10:58;;;;;;;8.87;7.20;;;20.00;99.90;;;;;;5058143;28;21026;-83
2021/07/24 03:13:24;;;;;;;9.13;7.37;;;20.00;99.90;;;;;;5059782;28;20455;-82
2021/07/24 03:15:51;;;;;;;8.57;6.90;;;20.00;99.90;;;;;;5052002;28;20621;-82
2021/07/24 03:18:18;;;;;;;7.90;7.13;;;20.00;99.90;;;;;;5056920;28;20493;-82
2021/07/24 03:20:47;;;;;;;10.03;6.70;;;20.00;99.90;;;;;;5052289;28;20478;-82
2021/07/24 03:23:14;;;;;;;7.93;7.20;;;20.00;99.90;;;;;;5057736;28;20458;-82
2021/07/24 03:25:42;;;;;;;13.70;7.70;;;20.00;99.90;;;;;;5053487;28;20498;-82
2021/07/24 03:28:09;;;;;;;8.13;7.30;;;20.00;99.90;;;;;;5056432;28;20458;-85
2021/07/24 03:30:38;;;;;;;14.77;8.10;;;20.00;99.90;;;;;;5058978;28;20467;-85
2021/07/24 03:33:05;;;;;;;8.83;7.27;;;20.00;99.90;;;;;;5057554;28;20503;-82
2021/07/24 03:35:32;;;;;;;8.50;7.63;;;19.90;99.90;;;;;;5058338;28;20489;-83
2021/07/24 03:38:04;;;;;;;9.33;7.90;;;19.90;99.90;;;;;;5057160;28;20518;-82
2021/07/24 03:40:31;;;;;;;8.90;6.97;;;19.90;99.90;;;;;;5050567;28;20458;-84
2021/07/24 03:42:58;;;;;;;8.37;7.57;;;19.90;99.90;;;;;;5058746;28;20478;-82
2021/07/24 03:45:25;;;;;;;11.20;7.93;;;19.90;99.90;;;;;;5053512;28;20498;-82
2021/07/24 03:47:52;;;;;;;10.97;9.03;;;19.90;99.90;;;;;;5050820;28;20470;-83
2021/07/24 03:50:19;;;;;;;9.37;8.47;;;19.90;99.90;;;;;;5061210;28;20970;-82
2021/07/24 03:52:46;;;;;;;12.47;9.00;;;19.90;99.90;;;;;;5052963;28;20750;-82
2021/07/24 03:55:15;;;;;;;11.70;8.63;;;19.90;99.90;;;;;;5056038;28;20486;-85
2021/07/24 03:57:42;;;;;;;13.60;9.40;;;19.90;99.90;;;;;;5054017;28;20467;-85
2021/07/24 04:00:10;;;;;;;11.70;10.47;;;19.90;99.90;;;;;;5059566;28;20964;-83
2021/07/24 04:02:38;;;;;;;12.20;9.80;;;19.90;99.90;;;;;;5053951;28;20470;-85
2021/07/24 04:05:06;;;;;;;10.57;8.80;;;19.90;99.90;;;;;;5048340;28;20835;-82
2021/07/24 04:07:34;;;;;;;13.00;9.10;;;20.00;99.90;;;;;;5052957;28;20442;-84
2021/07/24 04:10:01;;;;;;;11.23;10.13;;;20.00;99.90;;;;;;5054077;28;20731;-86
2021/07/24 04:12:32;;;;;;;9.17;7.93;;;20.00;99.90;;;;;;5059782;28;20472;-83
2021/07/24 04:15:00;;;;;;;13.90;9.23;;;20.00;99.90;;;;;;5052452;28;20582;-82
2021/07/24 04:17:27;;;;;;;12.70;9.60;;;20.00;99.90;;;;;;5049678;28;21043;-84
2021/07/24 04:19:56;;;;;;;12.80;9.33;;;20.00;99.90;;;;;;5055820;28;21093;-83
2021/07/24 04:22:23;;;;;;;16.80;10.60;;;20.00;99.90;;;;;;5052259;28;20510;-82
2021/07/24 04:24:50;;;;;;;12.17;9.90;;;20.00;99.90;;;;;;5054125;28;20462;-85
2021/07/24 04:27:17;;;;;;;9.60;8.60;;;20.00;99.90;;;;;;5058043;28;20517;-84
2021/07/24 04:29:46;;;;;;;13.43;9.40;;;20.00;99.90;;;;;;5051472;28;20546;-81
2021/07/24 04:32:13;;;;;;;9.70;8.37;;;20.00;99.90;;;;;;5060096;28;20544;-85
2021/07/24 04:34:40;;;;;;;10.73;8.60;;;20.00;99.90;;;;;;5052602;28;20462;-84
2021/07/24 04:37:06;;;;;;;10.60;8.73;;;20.00;99.90;;;;;;5051465;28;20712;-87
2021/07/24 04:39:34;;;;;;;11.37;9.30;;;19.90;99.90;;;;;;5055510;28;20471;-84
2021/07/24 04:42:01;;;;;;;11.03;9.00;;;19.90;99.90;;;;;;5056960;28;20463;-82
2021/07/24 04:44:28;;;;;;;13.30;9.23;;;19.90;99.90;;;;;;5051758;28;20545;-84
2021/07/24 04:46:56;;;;;;;11.30;8.90;;;19.90;99.90;;;;;;5052463;28;21145;-83
2021/07/24 04:49:23;;;;;;;12.17;8.77;;;19.90;99.90;;;;;;5055879;28;21708;-83
2021/07/24 04:51:50;;;;;;;16.23;10.47;;;19.90;99.90;;;;;;5053974;28;20466;-83
2021/07/24 04:54:17;;;;;;;12.87;9.90;;;19.80;99.90;;;;;;5054234;28;20501;-82
2021/07/24 04:56:44;;;;;;;12.60;9.40;;;19.90;99.90;;;;;;5056959;28;20490;-83
2021/07/24 04:59:11;;;;;;;14.00;9.73;;;19.90;99.90;;;;;;5056156;28;20462;-85
2021/07/24 05:01:38;;;;;;;12.90;9.93;;;19.90;99.90;;;;;;5068143;28;20443;-82
2021/07/24 05:04:07;;;;;;;11.53;10.10;;;20.00;99.90;;;;;;5064710;28;20549;-85
2021/07/24 05:06:35;;;;;;;9.40;8.40;;;20.00;99.90;;;;;;5055960;28;20678;-84
2021/07/24 05:09:05;;;;;;;11.30;8.40;;;20.00;99.90;;;;;;5058502;28;20494;-85
2021/07/24 05:11:33;;;;;;;17.53;11.77;;;19.90;99.90;;;;;;5055703;28;20463;-83
2021/07/24 05:14:00;;;;;;;11.10;9.43;;;19.90;99.90;;;;;;5056532;28;20455;-83
2021/07/24 05:16:27;;;;;;;14.57;10.37;;;19.90;99.90;;;;;;5059136;28;20475;-83
2021/07/24 05:18:56;;;;;;;14.53;9.87;;;19.90;99.90;;;;;;5059477;28;20463;-84
2021/07/24 05:21:24;;;;;;;18.90;11.20;;;20.00;99.90;;;;;;5056222;28;20460;-85
2021/07/24 05:23:51;;;;;;;13.60;11.30;;;20.00;99.90;;;;;;5055083;28;20547;-83
2021/07/24 05:26:18;;;;;;;14.20;9.40;;;20.10;99.90;;;;;;5054975;28;21788;-83
2021/07/24 05:28:45;;;;;;;11.77;9.90;;;20.10;99.90;;;;;;5056152;28;20455;-71
2021/07/24 05:31:16;;;;;;;24.33;9.87;;;20.20;99.90;;;;;;5056095;28;20845;-71
2021/07/24 05:33:43;;;;;;;16.13;10.30;;;20.20;99.90;;;;;;5054692;28;20935;-70
2021/07/24 05:36:10;;;;;;;17.43;9.77;;;20.20;99.90;;;;;;5059800;28;20777;-71
2021/07/24 05:38:39;;;;;;;13.50;9.70;;;20.30;99.90;;;;;;5057086;28;20577;-71
2021/07/24 05:41:06;;;;;;;10.10;9.10;;;20.30;99.90;;;;;;5056270;28;20483;-71
2021/07/24 05:43:33;;;;;;;21.83;10.17;;;20.40;99.90;;;;;;5064691;28;20470;-71
2021/07/24 05:46:03;;;;;;;18.07;10.70;;;20.40;99.90;;;;;;5057516;28;20460;-71
2021/07/24 05:48:30;;;;;;;11.90;9.60;;;20.40;99.90;;;;;;5058967;28;20475;-71
2021/07/24 05:50:56;;;;;;;13.93;10.23;;;20.40;99.90;;;;;;5057536;28;20467;-71
2021/07/24 05:53:23;;;;;;;14.70;9.50;;;20.40;99.90;;;;;;5054213;28;20810;-71
2021/07/24 05:55:52;;;;;;;9.90;8.90;;;20.50;99.90;;;;;;5054061;28;20498;-71
2021/07/24 05:58:18;;;;;;;10.30;9.20;;;20.50;99.90;;;;;;5050759;28;20969;-71
2021/07/24 06:00:45;;;;;;;13.90;9.60;;;20.50;99.90;;;;;;5059563;28;20478;-71
2021/07/24 06:03:12;;;;;;;12.93;9.80;;;20.50;99.90;;;;;;5057248;28;20459;-71
2021/07/24 06:05:39;;;;;;;11.40;9.33;;;20.50;99.90;;;;;;5059845;28;21068;-71
2021/07/24 06:08:06;;;;;;;12.87;9.40;;;20.60;99.90;;;;;;5056608;28;20458;-71
2021/07/24 06:10:33;;;;;;;14.70;9.00;;;20.60;99.90;;;;;;5054458;28;20459;-71
2021/07/24 06:13:01;;;;;;;11.57;9.27;;;20.60;99.90;;;;;;5046033;28;20470;-71
2021/07/24 06:15:30;;;;;;;13.83;10.37;;;20.70;99.90;;;;;;5053062;28;20465;-71
2021/07/24 06:17:56;;;;;;;12.40;10.10;;;20.80;99.90;;;;;;5054553;28;20472;-71
2021/07/24 06:20:23;;;;;;;11.90;10.43;;;20.80;99.90;;;;;;5056474;28;21278;-71
2021/07/24 06:22:50;;;;;;;19.10;12.20;;;20.90;99.90;;;;;;5054337;28;20463;-71
2021/07/24 06:25:18;;;;;;;12.57;10.70;;;20.90;99.90;;;;;;5052432;28;20455;-71
2021/07/24 06:27:45;;;;;;;13.90;11.17;;;21.00;99.90;;;;;;5050972;28;20472;-71
2021/07/24 06:30:13;;;;;;;15.83;10.80;;;21.00;99.90;;;;;;5050864;28;20458;-85
2021/07/24 06:32:40;;;;;;;14.43;11.10;;;21.10;99.90;;;;;;5059315;28;20462;-85
2021/07/24 06:35:08;;;;;;;14.07;11.43;;;21.10;99.90;;;;;;5058117;28;20963;-85
2021/07/24 06:37:35;;;;;;;14.77;12.40;;;21.10;99.90;;;;;;5056661;28;20485;-85
2021/07/24 06:40:02;;;;;;;14.47;11.00;;;21.20;99.90;;;;;;5057935;28;20454;-84
2021/07/24 06:42:29;;;;;;;13.47;12.07;;;21.20;99.90;;;;;;5056568;28;20455;-83
2021/07/24 06:44:55;;;;;;;14.63;10.67;;;21.20;99.90;;;;;;5051731;28;20465;-84
2021/07/24 06:47:24;;;;;;;11.87;10.40;;;21.20;99.90;;;;;;5058894;28;20454;-84
2021/07/24 06:49:51;;;;;;;11.47;10.27;;;21.30;99.90;;;;;;5059465;28;20464;-86
2021/07/24 06:52:18;;;;;;;13.73;10.83;;;21.30;99.90;;;;;;5057407;28;20470;-84
2021/07/24 06:54:45;;;;;;;11.93;10.57;;;21.30;99.90;;;;;;5052496;28;20575;-82
2021/07/24 06:57:11;;;;;;;15.00;12.00;;;21.40;99.90;;;;;;5051936;28;20493;-85
2021/07/24 06:59:38;;;;;;;13.10;10.20;;;21.40;99.90;;;;;;5050751;28;20462;-83
2021/07/24 07:02:06;;;;;;;13.10;11.20;;;21.40;99.90;;;;;;5058843;28;20450;-84
2021/07/24 07:04:35;;;;;;;11.83;9.40;;;21.50;99.90;;;;;;5055817;28;20492;-84
2021/07/24 07:07:01;;;;;;;14.17;10.27;;;21.50;99.90;;;;;;5059606;28;20450;-85
2021/07/24 07:09:28;;;;;;;14.37;11.00;;;21.50;99.90;;;;;;5057780;28;20453;-84
2021/07/24 07:11:57;;;;;;;11.87;10.57;;;21.60;99.90;;;;;;5055727;28;20455;-86
2021/07/24 07:14:24;;;;;;;11.10;9.47;;;21.60;99.90;;;;;;5049381;28;20448;-85
2021/07/24 07:16:51;;;;;;;12.30;10.20;;;21.70;99.90;;;;;;5054020;28;20482;-85
2021/07/24 07:19:18;;;;;;;12.43;9.33;;;21.70;99.90;;;;;;5051791;28;20544;-84
2021/07/24 07:21:47;;;;;;;14.43;9.90;;;21.70;99.90;;;;;;5057763;28;20773;-85
2021/07/24 07:24:15;;;;;;;14.37;10.60;;;21.80;99.90;;;;;;5053920;28;20549;-84
2021/07/24 07:26:42;;;;;;;13.30;10.10;;;21.80;99.90;;;;;;5054869;28;20521;-83
2021/07/24 07:29:10;;;;;;;11.43;10.03;;;21.90;99.90;;;;;;5055391;28;20447;-85
2021/07/24 07:31:37;;;;;;;11.50;9.03;;;21.90;99.90;;;;;;5055523;28;20462;-85
2021/07/24 07:34:05;;;;;;;13.07;9.70;;;22.00;99.90;;;;;;5053716;28;20516;-86
2021/07/24 07:36:32;;;;;;;12.23;10.17;;;22.10;99.90;;;;;;5055203;28;20483;-86
2021/07/24 07:39:01;;;;;;;14.80;11.20;;;22.10;99.90;;;;;;5056657;28;20478;-86
2021/07/24 07:41:28;;;;;;;12.93;10.23;;;22.20;99.90;;;;;;5060654;28;20461;-84
2021/07/24 07:43:55;;;;;;;10.57;9.47;;;22.20;99.90;;;;;;5052211;28;20459;-85
2021/07/24 07:46:21;;;;;;;10.47;9.37;;;22.30;99.90;;;;;;5056412;28;20450;-85
2021/07/24 07:48:49;;;;;;;30.50;17.10;;;22.40;99.90;;;;;;5051636;28;20546;-85
2021/07/24 07:51:16;;;;;;;26.10;18.60;;;22.50;99.90;;;;;;5058459;28;20965;-85
2021/07/24 07:53:43;;;;;;;19.20;15.30;;;22.50;99.90;;;;;;5053790;28;20458;-83
2021/07/24 07:56:12;;;;;;;18.97;11.90;;;22.60;99.90;;;;;;5053740;28;21013;-86
2021/07/24 07:58:39;;;;;;;14.97;11.93;;;22.60;99.90;;;;;;5050196;28;20537;-84
2021/07/24 08:01:11;;;;;;;19.23;11.07;;;22.70;99.90;;;;;;5056765;28;20466;-86
2021/07/24 08:03:38;;;;;;;12.57;9.17;;;22.70;99.90;;;;;;5052547;28;20448;-85
2021/07/24 08:06:05;;;;;;;16.53;11.60;;;22.80;99.90;;;;;;5052690;28;20463;-85
2021/07/24 08:08:32;;;;;;;15.97;12.03;;;22.80;99.90;;;;;;5055883;28;20523;-85
2021/07/24 08:10:59;;;;;;;14.20;10.60;;;22.90;99.90;;;;;;5053068;28;20467;-85
2021/07/24 08:13:27;;;;;;;13.73;10.87;;;22.90;99.90;;;;;;5052407;28;20459;-84
2021/07/24 08:15:55;;;;;;;13.97;10.70;;;22.90;99.90;;;;;;5051892;28;20451;-84
2021/07/24 08:18:22;;;;;;;13.10;10.97;;;22.90;99.90;;;;;;5054907;28;20486;-85
2021/07/24 08:20:49;;;;;;;13.07;11.17;;;23.00;99.90;;;;;;5057961;28;20459;-85
2021/07/24 08:23:16;;;;;;;16.23;11.33;;;23.00;99.90;;;;;;5055805;28;20534;-83
2021/07/24 08:25:44;;;;;;;13.03;10.33;;;23.10;99.90;;;;;;5056999;28;20569;-86
2021/07/24 08:28:12;;;;;;;15.37;11.10;;;23.10;99.90;;;;;;5054210;28;20463;-83
2021/07/24 08:30:40;;;;;;;12.53;10.57;;;23.20;99.90;;;;;;5058406;28;20498;-85
2021/07/24 08:33:07;;;;;;;12.87;10.77;;;23.20;99.90;;;;;;5056794;28;20465;-84
2021/07/24 08:35:34;;;;;;;21.30;11.83;;;23.20;99.90;;;;;;5063209;28;21033;-87
2021/07/24 08:38:01;;;;;;;16.37;10.60;;;23.30;99.90;;;;;;5062021;28;21160;-85
2021/07/24 08:40:28;;;;;;;12.03;10.67;;;23.30;99.90;;;;;;5078259;28;20558;-85
2021/07/24 08:42:55;;;;;;;13.83;9.93;;;23.40;99.90;;;;;;5073465;28;20473;-83
2021/07/24 08:45:22;;;;;;;11.53;10.33;;;23.40;99.90;;;;;;5084789;28;20852;-85
2021/07/24 08:47:51;;;;;;;13.40;12.00;;;23.40;99.90;;;;;;5083235;28;20462;-84
2021/07/24 08:50:18;;;;;;;13.43;11.20;;;23.40;99.90;;;;;;5086661;28;20453;-86
2021/07/24 08:52:51;;;;;;;11.93;10.63;;;23.40;99.90;;;;;;5083032;28;20972;-83
2021/07/24 08:55:22;;;;;;;10.97;9.70;;;23.40;99.90;;;;;;5085801;28;20487;-84
2021/07/24 08:57:51;;;;;;;15.83;10.50;;;23.40;99.90;;;;;;5081662;28;20484;-86
2021/07/24 09:00:21;;;;;;;12.30;9.10;;;23.40;99.90;;;;;;5085719;28;20519;-83
2021/07/24 09:02:52;;;;;;;11.80;9.87;;;23.40;99.90;;;;;;5079608;28;20470;-86
2021/07/24 09:05:20;;;;;;;24.03;11.83;;;23.40;99.90;;;;;;5081111;28;20460;-83
2021/07/24 09:07:48;;;;;;;11.53;10.33;;;23.40;99.90;;;;;;5075795;28;20454;-86
2021/07/24 09:10:16;;;;;;;13.33;10.57;;;23.40;99.90;;;;;;5080448;28;20523;-84
2021/07/24 09:12:44;;;;;;;14.40;10.00;;;23.40;99.90;;;;;;5086065;28;20452;-85
2021/07/24 09:15:13;;;;;;;11.73;9.77;;;23.40;99.90;;;;;;5081545;28;20453;-84
2021/07/24 09:17:41;;;;;;;13.23;10.00;;;23.40;99.90;;;;;;5078932;28;20481;-85
2021/07/24 09:20:10;;;;;;;11.70;10.50;;;23.40;99.90;;;;;;5081957;28;20889;-83
2021/07/24 09:22:38;;;;;;;13.50;10.27;;;23.40;99.90;;;;;;5088113;28;20817;-86
2021/07/24 09:25:12;;;;;;;14.40;11.53;;;23.40;99.90;;;;;;5083881;28;20941;-83
2021/07/24 09:27:40;;;;;;;13.80;10.47;;;23.30;99.90;;;;;;5082325;28;20473;-86
2021/07/24 09:30:10;;;;;;;13.33;11.10;;;23.40;99.90;;;;;;5084587;28;20610;-85
2021/07/24 09:32:38;;;;;;;13.77;11.20;;;23.40;99.90;;;;;;5070396;28;20804;-83
2021/07/24 09:35:05;;;;;;;14.10;12.10;;;23.40;99.90;;;;;;5070489;28;20546;-84
2021/07/24 09:37:34;;;;;;;11.70;10.30;;;23.40;99.90;;;;;;5089200;28;20485;-84
2021/07/24 09:40:20;;;;;;;15.93;10.47;;;23.40;99.90;;;;;;5082390;28;20952;-84
2021/07/24 09:42:47;;;;;;;12.03;10.60;;;23.40;99.90;;;;;;5080877;28;20492;-87
2021/07/24 09:45:14;;;;;;;12.80;11.43;;;23.40;99.90;;;;;;5082421;28;20536;-83
2021/07/24 09:47:41;;;;;;;15.03;10.53;;;23.40;99.90;;;;;;5081952;28;20549;-86
2021/07/24 09:50:13;;;;;;;16.53;10.60;;;23.40;99.90;;;;;;5084417;28;21045;-86
2021/07/24 09:52:52;;;;;;;14.00;11.00;;;23.40;99.90;;;;;;5079045;28;20493;-84
2021/07/24 09:55:22;;;;;;;13.53;12.23;;;23.40;99.90;;;;;;5080929;28;20619;-87
2021/07/24 09:57:49;;;;;;;18.53;10.00;;;23.40;99.90;;;;;;5080890;28;20478;-85
2021/07/24 10:00:24;;;;;;;14.97;11.77;;;23.30;99.90;;;;;;5078376;28;20544;-84
2021/07/24 10:03:02;;;;;;;12.63;11.20;;;23.40;99.90;;;;;;5082731;28;20452;-87
2021/07/24 10:05:37;;;;;;;14.77;11.40;;;23.30;99.90;;;;;;5081709;28;20462;-84
2021/07/24 10:08:11;;;;;;;11.77;10.50;;;23.30;99.90;;;;;;5079820;28;20822;-83
2021/07/24 10:10:39;;;;;;;12.40;10.80;;;23.30;99.90;;;;;;5074037;28;20541;-83
2021/07/24 10:13:09;;;;;;;17.53;11.57;;;23.30;99.90;;;;;;5078076;28;20450;-86
2021/07/24 10:15:38;;;;;;;13.60;12.17;;;23.30;99.90;;;;;;5072555;28;20455;-84
2021/07/24 10:18:07;;;;;;;13.50;11.40;;;23.20;99.90;;;;;;5078270;28;20516;-86
2021/07/24 10:20:38;;;;;;;14.10;11.20;;;23.20;99.90;;;;;;5078125;28;20755;-84
2021/07/24 10:23:06;;;;;;;12.10;10.87;;;23.20;99.90;;;;;;5081294;28;20470;-84
2021/07/24 10:25:46;;;;;;;15.90;12.33;;;23.10;99.90;;;;;;5082310;28;20461;-87
2021/07/24 10:28:15;;;;;;;17.37;12.17;;;23.10;99.90;;;;;;5082749;28;20568;-83
2021/07/24 10:30:43;;;;;;;13.40;10.33;;;23.10;99.90;;;;;;5078375;28;20504;-86
2021/07/24 10:33:11;;;;;;;14.80;13.27;;;23.10;99.90;;;;;;5080711;28;20462;-85
2021/07/24 10:35:39;;;;;;;69.03;51.03;;;23.10;99.90;;;;;;5078372;28;20473;-84
2021/07/24 10:38:32;;;;;;;25.87;22.13;;;23.10;99.90;;;;;;5076980;28;20486;-85
2021/07/24 10:41:32;;;;;;;13.67;12.27;;;23.00;99.90;;;;;;5079411;28;20445;-84
2021/07/24 10:44:03;;;;;;;17.27;11.80;;;23.00;99.90;;;;;;5074092;28;20468;-84
2021/07/24 10:47:06;;;;;;;14.37;11.57;;;23.00;99.90;;;;;;5078698;28;20474;-84
2021/07/24 10:50:00;;;;;;;14.93;12.40;;;23.00;99.90;;;;;;5074219;28;20465;-86
2021/07/24 10:52:42;;;;;;;19.70;13.47;;;23.00;99.90;;;;;;5076335;28;20462;-83
2021/07/24 10:55:14;;;;;;;14.03;12.60;;;23.00;99.90;;;;;;5074627;28;20910;-83
2021/07/24 10:58:03;;;;;;;15.77;12.57;;;23.00;99.90;;;;;;5081420;28;20485;-84
2021/07/24 11:00:51;;;;;;;14.40;11.57;;;23.00;99.90;;;;;;5080222;28;20438;-84
2021/07/24 11:03:32;;;;;;;14.00;12.50;;;23.00;99.90;;;;;;5072843;28;20465;-85
2021/07/24 11:06:00;;;;;;;17.50;10.97;;;22.90;99.90;;;;;;5074642;28;20453;-83
2021/07/24 11:09:20;;;;;;;15.73;12.40;;;23.00;99.90;;;;;;5074884;28;20467;-85
2021/07/24 11:11:49;;;;;;;23.50;12.40;;;23.00;99.90;;;;;;5051585;28;20773;-84
2021/07/24 11:14:55;;;;;;;13.37;12.00;;;23.00;99.90;;;;;;5079709;28;20465;-85
2021/07/24 11:17:24;;;;;;;22.03;13.60;;;23.00;99.90;;;;;;5075731;28;21095;-85
2021/07/24 11:20:30;;;;;;;14.03;11.60;;;22.90;99.90;;;;;;5073252;28;20469;-85
2021/07/24 11:23:16;;;;;;;19.97;12.03;;;22.90;99.90;;;;;;5076452;28;20486;-85
2021/07/24 11:25:46;;;;;;;20.40;12.10;;;22.90;99.90;;;;;;5077432;28;20454;-85
2021/07/24 11:28:21;;;;;;;14.73;11.70;;;22.90;99.90;;;;;;5076587;28;20462;-85
2021/07/24 11:30:57;;;;;;;17.23;12.83;;;22.90;99.90;;;;;;5083542;28;20476;-85
2021/07/24 11:33:29;;;;;;;18.83;11.80;;;22.90;99.90;;;;;;5072404;28;20520;-84
2021/07/24 11:36:04;;;;;;;14.03;12.60;;;22.90;99.90;;;;;;5074456;28;20467;-83
2021/07/24 11:38:31;;;;;;;15.70;12.70;;;22.90;99.90;;;;;;5075650;28;20481;-83
2021/07/24 11:41:03;;;;;;;16.03;11.90;;;22.90;99.90;;;;;;5080189;28;20469;-86
2021/07/24 11:43:30;;;;;;;17.73;12.40;;;22.90;99.90;;;;;;5079662;28;20991;-83
2021/07/24 11:46:09;;;;;;;15.00;11.93;;;23.00;99.90;;;;;;5081841;28;20552;-83
2021/07/24 11:48:40;;;;;;;17.90;12.87;;;23.00;99.90;;;;;;5075916;28;20983;-84
2021/07/24 11:51:10;;;;;;;14.33;12.87;;;23.00;99.90;;;;;;5078374;28;20455;-86
2021/07/24 11:53:37;;;;;;;15.00;11.40;;;23.10;99.90;;;;;;5082210;28;20531;-85
2021/07/24 11:56:09;;;;;;;13.73;11.93;;;23.10;99.90;;;;;;5078735;28;20501;-85
2021/07/24 11:58:37;;;;;;;14.60;12.27;;;23.10;99.90;;;;;;5076979;28;20482;-85
2021/07/24 12:01:20;;;;;;;14.27;11.60;;;23.10;99.90;;;;;;5083689;28;20493;-85
2021/07/24 12:03:48;;;;;;;16.87;13.60;;;23.10;99.90;;;;;;5076990;28;20844;-86
2021/07/24 12:06:15;;;;;;;14.73;12.00;;;23.10;99.90;;;;;;5075288;28;21031;-83
2021/07/24 12:08:44;;;;;;;15.77;12.50;;;23.20;99.90;;;;;;5073729;28;20462;-83
2021/07/24 12:11:15;;;;;;;13.90;12.10;;;23.20;99.90;;;;;;5079115;28;20843;-85
2021/07/24 12:13:44;;;;;;;14.33;12.83;;;23.20;99.90;;;;;;5079164;28;20460;-85
2021/07/24 12:16:12;;;;;;;26.03;13.63;;;23.20;99.90;;;;;;5082574;28;20466;-85
2021/07/24 12:18:41;;;;;;;16.57;12.70;;;23.20;99.90;;;;;;5075579;28;21122;-88
2021/07/24 12:22:11;;;;;;;14.97;13.10;;;23.20;99.90;;;;;;5069646;28;20466;-85
2021/07/24 12:24:38;;;;;;;12.80;11.50;;;23.20;99.90;;;;;;5075276;28;20461;-84
2021/07/24 12:27:09;;;;;;;16.80;11.70;;;23.20;99.90;;;;;;5077447;28;20450;-85
2021/07/24 12:29:53;;;;;;;15.20;11.97;;;23.20;99.90;;;;;;5079125;28;20523;-85
2021/07/24 12:32:21;;;;;;;14.57;11.80;;;23.10;99.90;;;;;;5080268;28;20979;-85
2021/07/24 12:34:49;;;;;;;13.13;11.70;;;23.10;99.90;;;;;;5074759;28;20461;-85
2021/07/24 12:37:31;;;;;;;18.60;13.60;;;23.10;99.90;;;;;;5076058;28;20462;-85
2021/07/24 12:39:58;;;;;;;16.53;13.73;;;23.10;99.90;;;;;;5072820;28;20462;-86
2021/07/24 12:42:34;;;;;;;13.57;12.17;;;23.10;99.90;;;;;;5075768;28;20457;-85
2021/07/24 12:45:01;;;;;;;14.70;13.10;;;23.10;99.90;;;;;;5076402;28;20474;-83
2021/07/24 12:47:36;;;;;;;14.77;12.80;;;23.10;99.90;;;;;;5070841;28;21016;-86
2021/07/24 12:50:14;;;;;;;16.50;14.00;;;23.10;99.90;;;;;;5070847;28;20454;-84